Tuesday, January 17, 2017, 3:54 AM EST

KPHF, Williamsburg International Airport

Location: Newport News, VA, United States Lat: 37.133
Local Time: 3:54 AM EST ( 8:54 GMT) Lon: -76.5
Time Zone: US/Eastern Elev: 42 ft

Show me the last for .
Show Decoded

2017-01-17 03:17 METAR KPHF 170817Z 19003KT 8SM OVC009 07/04 A3027 =
2017-01-17 02:54 METAR KPHF 170754Z 20005KT 8SM OVC011 07/04 A3028 RMK AO2 SLP254 T00670039 =
2017-01-17 01:54 METAR KPHF 170654Z 00000KT 7SM OVC013 07/04 A3029 RMK AO2 SLP256 T00670039 =
2017-01-17 00:54 METAR KPHF 170554Z 00000KT 10SM OVC013 07/03 A3030 RMK AO2 SLP262 T00670033
                 10067 20061 56019 =
2017-01-16 23:54 METAR KPHF 170454Z 00000KT 10SM OVC014 07/03 A3032 RMK AO2 SLP267 T00670033
                 400720039 =
2017-01-16 22:54 METAR KPHF 170354Z 00000KT 9SM OVC020 07/03 A3034 RMK AO2 SLP274 T00670028 =
2017-01-16 21:54 METAR KPHF 170254Z 22003KT 10SM BKN027 OVC070 06/03 A3036 RMK AO2 SLP281
                 T00610028 56004 =
2017-01-16 21:52 METAR KPHF 170252Z 22004KT 10SM BKN027 OVC070 06/03 A3036 RMK AO2 =
2017-01-16 21:25 METAR KPHF 170225Z 00000KT 10SM FEW024 OVC075 07/02 A3036 RMK AO2 T00670022 =
2017-01-16 20:54 METAR KPHF 170154Z 17003KT 10SM OVC019 07/02 A3037 RMK AO2 SLP284 T00670017 =
2017-01-16 19:54 METAR KPHF 170054Z 10004KT 10SM OVC021 06/01 A3037 RMK AO2 SLP285 T00610011 =
2017-01-16 18:54 METAR KPHF 162354Z 13005KT 10SM OVC023 06/02 A3038 RMK AO2 SLP288 60000
                 T00610017 10072 20061 58003 =
2017-01-16 17:54 METAR KPHF 162254Z 11005KT 9SM FEW016 OVC025 06/02 A3039 RMK AO2 SLP291
                 T00610022 =
2017-01-16 16:54 METAR KPHF 162154Z 05004KT 8SM BKN017 OVC028 07/03 A3040 RMK AO2 SLP293
                 T00670028 =
2017-01-16 15:54 METAR KPHF 162054Z 23003KT 10SM OVC017 07/01 A3039 RMK AO2 SLP292 60000
                 T00670006 56013 =
2017-01-16 15:12 METAR KPHF 162012Z 11003KT 9SM BKN017 OVC043 07/02 A3039 RMK AO2 T00670022 =
2017-01-16 14:54 METAR KPHF 161954Z 07003KT 10SM SCT017 OVC039 07/02 A3039 RMK AO2 RAE04 SLP292
                 P0000 T00670022 =
2017-01-16 14:12 METAR KPHF 161912Z 11003KT 10SM SCT028 OVC035 07/02 A3039 RMK AO2 RAE04 P0000
                 T00670017 =
2017-01-16 13:54 METAR KPHF 161854Z 11003KT 10SM -RA BKN028 OVC047 07/01 A3041 RMK AO2 RAB53
                 SLP296 P0000 T00670011 =
2017-01-16 13:16 METAR KPHF 161816Z 07003KT 10SM SCT019 OVC041 07/00 A3042 RMK AO2 T00670000 =
2017-01-16 12:54 METAR KPHF 161754Z 06003KT 10SM OVC019 06/00 A3043 RMK AO2 RAE14 SLP305 P0000
                 60000 T00610000 10061 20039 58018 =
2017-01-16 11:54 METAR KPHF 161654Z 00000KT 10SM -RA BKN019 OVC026 06/M01 A3046 RMK AO2 RAB52
                 SLP315 P0000 T00611006 =
2017-01-16 11:21 METAR KPHF 161621Z 00000KT 10SM BKN027 OVC040 06/M01 A3047 RMK AO2 T00611006 =
2017-01-16 10:54 METAR KPHF 161554Z 07003KT 10SM SCT030 OVC044 06/M01 A3049 RMK AO2 SLP323
                 T00561006 =
2017-01-16 09:54 METAR KPHF 161454Z 06004KT 10SM FEW033 BKN046 OVC060 06/M01 A3048 RMK AO2 SLP323
                 T00561006 51015 =
2017-01-16 08:54 METAR KPHF 161354Z 00000KT 10SM OVC034 05/02 A3048 RMK AO2 SLP320 T00500017 =
2017-01-16 07:54 METAR KPHF 161254Z 00000KT 9SM OVC048 04/03 A3045 RMK AO2 SLP313 T00440028 =
2017-01-16 06:54 METAR KPHF 161154Z 00000KT 10SM OVC050 04/03 A3044 RMK AO2 RAE28 SLP308 P0000
                 60000 T00390028 10050 20039 53002 =
2017-01-16 05:54 METAR KPHF 161054Z 02003KT 10SM -RA BKN050 OVC075 04/02 A3044 RMK AO2 SLP307
                 P0000 T00390022 =
2017-01-16 04:54 METAR KPHF 160954Z 05003KT 10SM -RA OVC050 04/02 A3043 RMK AO2 SLP306 P0000
                 T00390022 =

Support USWX by starting your Amazon purchase here.